Camp Douglas, WI (54618)

10:35 PM CST on February 09, 2016 (GMT -0600)
In Town | | Change Station
CLOSE
Current Station
Personal Weather Station
Location: New Lisbon, WI
Elevation: 909 ft
Nearby Weather Stations

Elev 909 ft 43.88 °N, 90.17 °W | Updated 7 minutes ago

Light Snow
Light Snow
6.8 °F
Feels Like 0 °F
N
3.2
Wind Variable Wind from WNW

Today
High -- | Low -- °F
--% Chance of Precip.
Yesterday
High -- | Low -- °F
Precip. -- in
Pressure 30.09 in
Visibility 10.0 miles
Clouds Mostly Cloudy 3200 ft
Windchill 0 °F
Dew Point 1 °F
Humidity 77%
Rainfall 0.00 in
Snow Depth Not available.
7:09 AM 5:22 PM
Waxing Crescent, 3% visible
METAR KVOK 100358Z 29005KT 10SM -SN BKN032 M16/M18 A3002 RMK AO2A SLP188
Pressure 30.09 in
Visibility 10.0 miles
Clouds Mostly Cloudy 3200 ft
Windchill 0 °F
Dew Point 1 °F
Humidity 77%
Rainfall 0.00 in
Snow Depth Not available.
7:09 AM 5:22 PM
Waxing Crescent, 3% visible
METAR KVOK 100358Z 29005KT 10SM -SN BKN032 M16/M18 A3002 RMK AO2A SLP188

10-Day Weather Forecast

Almanac

Astronomy

Feb. 09, 2016 Rise Set
Actual Time
Civil Twilight
Nautical Twilight
Astronomical Twilight
Moon
Length of Visible Light
Length of Day
Tomorrow will be .
, % of the Moon is Illuminated

Today's Extremes

State Highs State Lows

Community

WunderPhotos

Upload Photos

1,891,805 photos uploaded!

WunderBlog® & News

Nearby

Air Quality

  Air Quality AQ Index Pollutant
Not available.

Snow Depth

Station Depth Elevation

Earthquake Activity

City Distance Mag. Time & Date
Minimum magnitude displayed is 2.5.

Coastal Water Temperatures

Place Temperature

Stations

Nearby Weather Stations

Station Location Temp. Windchill Dew Point Humidity Wind Precip. Elev Updated Type
                   

Watches & Warnings

There are currently no watches in effect.